Terminal Aerodrome Forecast
Issued by NWS North Platte, NE

Home | Current Version | Previous Version | Text Only | Print | Product List | Glossary On
Versions: 1 2 3 4 5 6 7 8 9 10 11 12 13 14
000
FTUS43 KLBF 310500
TAFLBF
TAF
KLBF 310520Z 3106/0106 05007KT P6SM SKC
     FM310900 05008KT P6SM OVC020
     FM311100 07006KT P6SM OVC015
      TEMPO 3111/3114 P6SM OVC007
     FM311500 12006KT P6SM OVC012
     FM311800 16014G20KT P6SM SKC
     FM010000 14012KT P6SM SKC=

USA.gov is the U.S. government's official web portal to all federal, state and local government web resources and services.